createdAt,value
2022-10-30T00:00:41.068Z,30.00
2022-10-30T00:03:14.969Z,29.75
2022-10-30T00:05:46.490Z,30.75
2022-10-30T00:08:17.680Z,31.83
2022-10-30T00:10:46.507Z,31.55
2022-10-30T00:13:13.848Z,31.17
2022-10-30T00:15:46.216Z,31.58
2022-10-30T00:18:13.660Z,32.53
2022-10-30T00:20:40.333Z,34.80
2022-10-30T00:23:07.040Z,35.25
2022-10-30T00:25:35.497Z,34.97
2022-10-30T00:28:04.439Z,33.42
2022-10-30T00:30:31.274Z,33.13
2022-10-30T00:32:58.125Z,34.28
2022-10-30T00:35:25.022Z,32.55
2022-10-30T00:37:51.697Z,31.25
2022-10-30T00:40:18.983Z,32.33
2022-10-30T00:42:45.955Z,33.20
2022-10-30T00:45:14.854Z,34.00
2022-10-30T00:47:55.055Z,33.83
2022-10-30T00:53:02.999Z,34.20
2022-10-30T00:55:35.825Z,34.08
2022-10-30T00:58:14.330Z,35.20
2022-10-30T01:00:44.754Z,34.78
2022-10-30T01:03:11.799Z,36.40
2022-10-30T01:05:39.815Z,34.67
2022-10-30T01:08:06.614Z,34.45
2022-10-30T01:10:33.525Z,33.92
2022-10-30T01:13:01.420Z,33.58
2022-10-30T01:18:50.860Z,33.90
2022-10-30T01:21:33.585Z,32.70
2022-10-30T01:24:19.765Z,35.03
2022-10-30T01:27:15.642Z,32.28
2022-10-30T01:30:02.792Z,32.40
2022-10-30T01:32:45.104Z,32.40
2022-10-30T01:35:16.790Z,31.60
2022-10-30T01:38:05.978Z,31.50
2022-10-30T01:40:33.276Z,31.80
2022-10-30T01:43:00.577Z,31.23
2022-10-30T01:45:50.535Z,30.38
2022-10-30T01:48:23.333Z,31.75
2022-10-30T01:51:17.395Z,31.67
2022-10-30T01:53:56.079Z,29.65
2022-10-30T01:56:32.399Z,29.25
2022-10-30T01:59:16.907Z,30.92
2022-10-30T02:01:44.226Z,30.40
2022-10-30T02:04:12.544Z,30.83
2022-10-30T02:06:40.059Z,30.77
2022-10-30T02:09:07.757Z,31.95
2022-10-30T02:11:35.745Z,31.15
2022-10-30T02:14:07.585Z,30.83
2022-10-30T02:16:37.831Z,32.45
2022-10-30T02:19:04.824Z,31.38
2022-10-30T02:21:34.798Z,32.45
2022-10-30T02:24:01.487Z,29.67
2022-10-30T02:26:28.200Z,31.58
2022-10-30T02:28:54.849Z,32.40
2022-10-30T02:31:21.633Z,33.13
2022-10-30T02:33:49.326Z,32.03
2022-10-30T02:36:16.120Z,32.88
2022-10-30T02:38:43.964Z,32.40
2022-10-30T02:41:11.695Z,32.47
2022-10-30T02:43:38.395Z,32.72
2022-10-30T02:46:05.385Z,30.80
2022-10-30T02:48:32.142Z,31.02
2022-10-30T02:51:03.124Z,31.38
2022-10-30T02:53:30.690Z,30.52
2022-10-30T02:56:02.644Z,30.45
2022-10-30T02:58:29.353Z,31.58
2022-10-30T03:00:56.123Z,31.60
2022-10-30T03:03:24.165Z,32.42
2022-10-30T03:05:51.105Z,31.52
2022-10-30T03:08:18.146Z,31.85
2022-10-30T03:10:44.811Z,32.90
2022-10-30T03:13:11.499Z,30.85
2022-10-30T03:15:38.119Z,31.38
2022-10-30T03:18:04.903Z,31.35
2022-10-30T03:20:31.737Z,31.60
2022-10-30T03:22:58.393Z,32.20
2022-10-30T03:25:25.171Z,30.98
2022-10-30T03:27:52.729Z,31.52
2022-10-30T03:30:19.528Z,32.30
2022-10-30T03:32:47.257Z,32.40
2022-10-30T03:35:13.911Z,31.55
2022-10-30T03:37:40.553Z,31.48
2022-10-30T03:40:07.879Z,30.85
2022-10-30T03:42:34.652Z,30.08
2022-10-30T03:45:16.185Z,31.20
2022-10-30T03:47:42.824Z,31.40
2022-10-30T03:50:09.539Z,29.75
2022-10-30T03:52:36.179Z,29.50
2022-10-30T03:55:03.100Z,29.55
2022-10-30T03:57:29.796Z,29.23
2022-10-30T03:59:56.499Z,30.27
2022-10-30T04:02:23.176Z,28.60
2022-10-30T04:04:49.841Z,29.00
2022-10-30T04:07:16.566Z,28.45
2022-10-30T04:09:43.238Z,28.35
2022-10-30T04:12:09.881Z,28.95
2022-10-30T04:14:36.560Z,27.40
2022-10-30T04:17:03.242Z,28.38
2022-10-30T04:19:29.900Z,28.52
2022-10-30T04:21:56.690Z,28.27
2022-10-30T04:24:40.720Z,26.40
2022-10-30T04:27:07.351Z,26.77
2022-10-30T04:29:34.010Z,25.63
2022-10-30T04:32:00.701Z,25.67
2022-10-30T04:34:27.513Z,26.25
2022-10-30T04:36:54.130Z,26.70
2022-10-30T04:39:20.869Z,25.58
2022-10-30T04:41:47.576Z,25.90
2022-10-30T04:44:14.187Z,25.80
2022-10-30T04:46:40.834Z,25.65
2022-10-30T04:49:08.141Z,26.00
2022-10-30T04:51:34.767Z,25.48
2022-10-30T04:54:01.538Z,25.23
2022-10-30T04:56:28.211Z,26.23
2022-10-30T04:58:54.929Z,25.23
2022-10-30T05:01:21.687Z,24.52
2022-10-30T05:03:50.649Z,24.20
2022-10-30T05:06:26.544Z,24.63
2022-10-30T05:08:53.293Z,24.13
2022-10-30T05:11:20.041Z,24.88
2022-10-30T05:13:46.696Z,26.13
2022-10-30T05:16:13.350Z,24.17
2022-10-30T05:18:40.065Z,23.50
2022-10-30T05:21:06.878Z,24.25
2022-10-30T05:23:33.625Z,24.92
2022-10-30T05:26:00.782Z,24.00
2022-10-30T05:28:27.467Z,24.75
2022-10-30T05:30:57.076Z,24.92
2022-10-30T05:33:23.816Z,24.45
2022-10-30T05:35:50.475Z,24.65
2022-10-30T05:38:17.133Z,23.95
2022-10-30T05:40:46.566Z,24.10
2022-10-30T05:43:13.205Z,23.55
2022-10-30T05:45:39.936Z,23.30
2022-10-30T05:48:07.325Z,22.40
2022-10-30T05:50:34.456Z,23.60
2022-10-30T05:53:03.947Z,23.27
2022-10-30T05:55:31.097Z,23.35
2022-10-30T05:58:02.310Z,22.85
2022-10-30T06:00:31.177Z,21.95
2022-10-30T06:03:02.171Z,22.65
2022-10-30T06:05:34.136Z,22.85
2022-10-30T06:08:01.597Z,23.20
2022-10-30T06:10:28.772Z,22.75
2022-10-30T06:12:57.456Z,23.10
2022-10-30T06:15:24.727Z,22.42
2022-10-30T06:17:51.441Z,22.67
2022-10-30T06:20:19.290Z,21.77
2022-10-30T06:22:57.365Z,22.48
2022-10-30T06:25:24.494Z,21.80
2022-10-30T06:27:51.824Z,22.77
2022-10-30T06:30:19.314Z,22.55
2022-10-30T06:32:46.094Z,22.33
2022-10-30T06:35:12.794Z,22.60
2022-10-30T06:37:45.978Z,22.65
2022-10-30T06:40:12.804Z,22.65
2022-10-30T06:42:47.517Z,22.67
2022-10-30T06:45:15.493Z,21.23
2022-10-30T06:47:42.148Z,21.08
2022-10-30T06:50:12.028Z,22.08
2022-10-30T06:52:38.826Z,22.98
2022-10-30T06:55:06.189Z,22.70
2022-10-30T06:57:32.986Z,21.40
2022-10-30T06:59:59.762Z,20.63
2022-10-30T07:02:26.520Z,21.92
2022-10-30T07:04:53.211Z,21.20
2022-10-30T07:07:20.058Z,22.80
2022-10-30T07:09:46.680Z,22.20
2022-10-30T07:12:13.420Z,21.35
2022-10-30T07:14:40.079Z,21.38
2022-10-30T07:17:06.688Z,21.38
2022-10-30T07:19:33.312Z,21.17
2022-10-30T07:22:01.225Z,20.95
2022-10-30T07:24:28.008Z,23.13
2022-10-30T07:27:23.558Z,21.73
2022-10-30T07:29:50.174Z,21.75
2022-10-30T07:32:16.786Z,21.58
2022-10-30T07:34:43.448Z,20.73
2022-10-30T07:37:10.181Z,22.17
2022-10-30T07:39:36.855Z,27.08
2022-10-30T07:42:42.070Z,20.70
2022-10-30T07:47:41.258Z,60.58
2022-10-30T07:50:08.593Z,58.35
2022-10-30T07:52:35.352Z,29.02
2022-10-30T07:55:02.146Z,22.95
2022-10-30T07:57:34.651Z,22.08
2022-10-30T08:00:04.210Z,21.65
2022-10-30T08:02:33.050Z,20.88
2022-10-30T08:04:59.827Z,20.65
2022-10-30T08:07:34.014Z,20.13
2022-10-30T08:10:00.759Z,22.73
2022-10-30T08:12:27.829Z,20.25
2022-10-30T08:14:55.540Z,20.92
2022-10-30T08:17:22.271Z,21.92
2022-10-30T08:19:49.561Z,21.42
2022-10-30T08:22:16.265Z,20.13
2022-10-30T08:24:45.323Z,20.15
2022-10-30T08:27:12.013Z,20.20
2022-10-30T08:29:38.657Z,18.40
2022-10-30T08:32:05.832Z,19.88
2022-10-30T08:34:32.564Z,19.23
2022-10-30T08:36:59.206Z,19.70
2022-10-30T08:39:26.108Z,18.98
2022-10-30T08:41:52.802Z,19.65
2022-10-30T08:44:19.439Z,19.10
2022-10-30T08:46:46.090Z,18.88
2022-10-30T08:49:12.696Z,18.73
2022-10-30T08:51:39.379Z,19.15
2022-10-30T08:54:06.059Z,18.30
2022-10-30T08:56:32.727Z,20.27
2022-10-30T08:58:59.502Z,18.55
2022-10-30T09:01:26.355Z,18.73
2022-10-30T09:03:53.264Z,18.60
2022-10-30T09:06:19.899Z,17.83
2022-10-30T09:08:46.814Z,19.20
2022-10-30T09:11:13.444Z,17.77
2022-10-30T09:16:33.338Z,17.83
2022-10-30T09:18:59.977Z,16.67
2022-10-30T09:21:26.669Z,15.93
2022-10-30T09:23:53.318Z,15.85
2022-10-30T09:26:20.929Z,15.13
2022-10-30T09:28:47.728Z,15.13
2022-10-30T09:31:14.441Z,14.00
2022-10-30T09:36:33.780Z,13.57
2022-10-30T09:39:00.549Z,13.20
2022-10-30T09:42:05.888Z,13.45
2022-10-30T09:44:35.584Z,13.80
2022-10-30T09:47:17.168Z,13.75
2022-10-30T09:50:24.356Z,12.75
2022-10-30T09:53:15.452Z,19.98
2022-10-30T09:56:00.270Z,12.07
2022-10-30T09:59:00.969Z,12.13
2022-10-30T10:01:31.466Z,12.18
2022-10-30T10:04:03.548Z,11.93
2022-10-30T10:06:31.026Z,11.35
2022-10-30T10:09:03.700Z,11.70
2022-10-30T10:11:36.116Z,11.25
2022-10-30T10:14:23.291Z,10.27
2022-10-30T10:16:54.774Z,10.20
2022-10-30T10:19:40.984Z,10.82
2022-10-30T10:22:21.103Z,10.73
2022-10-30T10:24:48.497Z,10.35
2022-10-30T10:27:50.368Z,11.73
2022-10-30T10:30:50.801Z,10.63
2022-10-30T10:37:04.425Z,9.90
2022-10-30T10:39:40.795Z,9.25
2022-10-30T10:42:34.740Z,9.05
2022-10-30T10:45:07.741Z,8.70
2022-10-30T10:48:07.780Z,8.32
2022-10-30T10:50:48.180Z,8.82
2022-10-30T10:53:45.571Z,8.98
2022-10-30T10:56:13.566Z,8.43
2022-10-30T10:58:49.346Z,8.00
2022-10-30T11:01:22.961Z,8.60
2022-10-30T11:03:49.938Z,8.23
2022-10-30T11:06:24.279Z,7.95
2022-10-30T11:08:53.307Z,8.13
2022-10-30T11:11:20.021Z,8.05
2022-10-30T11:13:47.941Z,8.02
2022-10-30T11:16:46.738Z,7.95
2022-10-30T11:19:19.718Z,7.93
2022-10-30T11:21:51.531Z,7.70
2022-10-30T11:24:35.189Z,8.20
2022-10-30T11:27:23.812Z,7.22
2022-10-30T11:30:05.732Z,7.38
2022-10-30T11:32:34.582Z,8.40
2022-10-30T11:35:02.599Z,9.93
2022-10-30T11:37:32.393Z,7.95
2022-10-30T11:40:15.692Z,7.82
2022-10-30T11:42:49.070Z,8.10
2022-10-30T11:45:23.454Z,7.63
2022-10-30T11:47:50.815Z,7.15
2022-10-30T11:50:23.839Z,8.02
2022-10-30T11:52:55.544Z,7.00
2022-10-30T11:55:28.258Z,7.68
2022-10-30T11:57:59.333Z,7.35
2022-10-30T12:00:33.064Z,7.82
2022-10-30T12:03:01.180Z,6.90
2022-10-30T12:05:33.797Z,7.80
2022-10-30T12:08:09.577Z,7.47
2022-10-30T12:10:51.378Z,7.60
2022-10-30T12:13:20.807Z,6.32
2022-10-30T12:15:50.462Z,7.22
2022-10-30T12:18:25.571Z,6.90
2022-10-30T12:23:40.186Z,6.65
2022-10-30T12:26:12.116Z,7.82
2022-10-30T12:28:39.474Z,6.32
2022-10-30T12:31:12.079Z,7.45
2022-10-30T12:34:01.635Z,7.00
2022-10-30T12:36:33.809Z,6.75
2022-10-30T12:39:14.014Z,7.90
2022-10-30T12:41:46.958Z,6.68
2022-10-30T12:44:18.490Z,6.60
2022-10-30T12:47:09.222Z,6.65
2022-10-30T12:49:40.726Z,7.22
2022-10-30T12:52:14.920Z,7.00
2022-10-30T12:54:53.719Z,6.32
2022-10-30T12:57:46.379Z,6.25
2022-10-30T13:00:47.507Z,7.70
2022-10-30T13:03:39.136Z,6.97
2022-10-30T13:06:20.918Z,7.57
2022-10-30T13:09:12.459Z,7.90
2022-10-30T13:11:57.952Z,6.45
2022-10-30T13:14:47.614Z,6.28
2022-10-30T13:17:15.273Z,7.15
2022-10-30T13:19:44.570Z,6.85
2022-10-30T13:22:45.000Z,6.45
2022-10-30T13:25:39.547Z,6.78
2022-10-30T13:28:06.398Z,7.07
2022-10-30T13:31:07.776Z,7.28
2022-10-30T13:33:42.872Z,6.57
2022-10-30T13:36:29.811Z,6.15
2022-10-30T13:39:00.478Z,6.53
2022-10-30T13:41:39.355Z,7.47
2022-10-30T13:44:29.541Z,6.40
2022-10-30T13:47:08.712Z,6.63
2022-10-30T13:49:41.194Z,6.63
2022-10-30T13:52:20.789Z,6.90
2022-10-30T13:55:02.156Z,6.22
2022-10-30T13:57:36.081Z,6.72
2022-10-30T14:00:15.639Z,6.78
2022-10-30T14:03:11.674Z,6.97
2022-10-30T14:05:58.640Z,6.97
2022-10-30T14:08:32.704Z,7.47
2022-10-30T14:11:01.168Z,6.60
2022-10-30T14:13:43.723Z,6.30
2022-10-30T14:16:46.317Z,6.75
2022-10-30T14:19:14.980Z,6.60
2022-10-30T14:21:44.838Z,6.50
2022-10-30T14:24:29.328Z,7.75
2022-10-30T14:27:05.544Z,7.63
2022-10-30T14:29:35.356Z,6.60
2022-10-30T14:32:09.026Z,7.07
2022-10-30T14:34:51.938Z,8.15
2022-10-30T14:37:38.579Z,7.78
2022-10-30T14:40:35.011Z,6.97
2022-10-30T14:45:42.654Z,7.15
2022-10-30T14:48:48.138Z,7.75
2022-10-30T14:51:19.300Z,8.32
2022-10-30T14:54:17.258Z,8.15
2022-10-30T14:56:52.449Z,7.90
2022-10-30T14:59:19.154Z,8.07
2022-10-30T15:05:43.708Z,8.70
2022-10-30T15:08:31.859Z,8.38
2022-10-30T15:11:12.823Z,8.73
2022-10-30T15:13:51.891Z,8.57
2022-10-30T15:16:30.539Z,8.50
2022-10-30T15:19:04.918Z,8.82
2022-10-30T15:21:35.473Z,8.57
2022-10-30T15:24:02.211Z,8.48
2022-10-30T15:26:36.010Z,8.85
2022-10-30T15:29:04.016Z,8.98
2022-10-30T15:31:31.261Z,9.20
2022-10-30T15:33:58.764Z,10.13
2022-10-30T15:36:27.068Z,11.48
2022-10-30T15:39:14.929Z,11.52
2022-10-30T15:42:02.711Z,11.70
2022-10-30T15:44:32.731Z,11.98
2022-10-30T15:47:02.065Z,10.48
2022-10-30T15:49:55.570Z,11.88
2022-10-30T15:52:30.771Z,12.05
2022-10-30T15:55:06.151Z,12.70
2022-10-30T16:00:37.769Z,14.05
2022-10-30T16:03:13.149Z,14.90
2022-10-30T16:05:39.893Z,15.13
2022-10-30T16:08:30.541Z,15.00
2022-10-30T16:10:57.506Z,16.67
2022-10-30T16:13:30.269Z,18.63
2022-10-30T16:15:57.289Z,16.77
2022-10-30T16:18:26.721Z,16.85
2022-10-30T16:21:01.195Z,16.45
2022-10-30T16:23:36.976Z,17.27
2022-10-30T16:26:03.715Z,16.80
2022-10-30T16:28:37.944Z,17.08
2022-10-30T16:31:09.838Z,17.30
2022-10-30T16:33:48.041Z,17.80
2022-10-30T16:36:18.627Z,17.65
2022-10-30T16:38:48.654Z,20.15
2022-10-30T16:41:30.496Z,21.35
2022-10-30T16:44:12.874Z,22.13
2022-10-30T16:46:45.786Z,22.83
2022-10-30T16:49:18.571Z,21.38
2022-10-30T16:52:11.019Z,22.40
2022-10-30T16:54:40.387Z,22.00
2022-10-30T16:57:27.640Z,22.98
2022-10-30T16:59:55.856Z,22.58
2022-10-30T17:02:26.747Z,22.90
2022-10-30T17:04:58.241Z,29.13
2022-10-30T17:07:27.743Z,27.40
2022-10-30T17:09:56.435Z,25.48
2022-10-30T17:12:25.864Z,24.38
2022-10-30T17:15:03.236Z,24.23
2022-10-30T17:18:27.154Z,23.92
2022-10-30T17:21:15.490Z,23.48
2022-10-30T17:23:55.713Z,27.63
2022-10-30T17:26:22.886Z,27.75
2022-10-30T17:28:49.629Z,28.17
2022-10-30T17:31:28.123Z,27.23
2022-10-30T17:34:12.851Z,27.05
2022-10-30T17:37:12.307Z,29.65
2022-10-30T17:39:39.235Z,30.13
2022-10-30T17:42:06.009Z,29.67
2022-10-30T17:44:35.576Z,29.48
2022-10-30T17:47:13.686Z,33.35
2022-10-30T17:49:40.736Z,30.70
2022-10-30T17:52:09.967Z,32.08
2022-10-30T17:54:37.196Z,32.00
2022-10-30T17:57:03.920Z,28.98
2022-10-30T18:00:19.617Z,28.15
2022-10-30T18:02:41.035Z,29.15
2022-10-30T18:05:21.905Z,28.95
2022-10-30T18:10:16.475Z,40.20
2022-10-30T18:12:43.193Z,38.63
2022-10-30T18:15:26.117Z,48.38
2022-10-30T18:17:53.270Z,34.40
2022-10-30T18:20:20.479Z,30.50
2022-10-30T18:22:47.338Z,32.10
2022-10-30T18:25:19.166Z,37.35
2022-10-30T18:27:45.947Z,36.60
2022-10-30T18:30:16.160Z,35.50
2022-10-30T18:33:06.477Z,45.70
2022-10-30T18:35:46.429Z,28.88
2022-10-30T18:38:13.549Z,29.17
2022-10-30T18:40:41.429Z,27.30
2022-10-30T18:43:12.130Z,29.95
2022-10-30T18:45:40.248Z,28.48
2022-10-30T18:48:08.248Z,29.17
2022-10-30T18:51:01.105Z,28.92
2022-10-30T18:53:32.701Z,29.75
2022-10-30T18:56:01.761Z,29.38
2022-10-30T18:58:31.080Z,30.40
2022-10-30T19:01:11.480Z,32.13
2022-10-30T19:03:38.852Z,35.97
2022-10-30T19:06:09.765Z,33.97
2022-10-30T19:08:36.478Z,33.78
2022-10-30T19:11:03.599Z,34.13
2022-10-30T19:13:30.286Z,32.55
2022-10-30T19:16:00.378Z,32.13
2022-10-30T19:18:33.342Z,35.53
2022-10-30T19:21:05.162Z,33.05
2022-10-30T19:23:33.899Z,31.33
2022-10-30T19:26:00.741Z,32.15
2022-10-30T19:28:27.501Z,29.90
2022-10-30T19:30:54.200Z,32.47
2022-10-30T19:33:22.661Z,30.42
2022-10-30T19:36:01.188Z,30.23
2022-10-30T19:38:28.588Z,29.33
2022-10-30T19:40:55.291Z,29.25
2022-10-30T19:43:22.066Z,31.92
2022-10-30T19:45:51.366Z,32.17
2022-10-30T19:48:40.504Z,31.23
2022-10-30T19:51:08.213Z,30.77
2022-10-30T19:56:39.252Z,33.17
2022-10-30T19:59:09.800Z,32.55
2022-10-30T20:01:36.711Z,32.90
2022-10-30T20:04:03.631Z,31.95
2022-10-30T20:06:30.320Z,32.67
2022-10-30T20:08:57.008Z,33.08
2022-10-30T20:11:23.802Z,33.05
2022-10-30T20:13:52.192Z,32.42
2022-10-30T20:16:21.285Z,31.00
2022-10-30T20:18:48.018Z,31.88
2022-10-30T20:21:14.791Z,30.70
2022-10-30T20:23:41.471Z,31.13
2022-10-30T20:26:27.454Z,34.13
2022-10-30T20:28:54.951Z,30.90
2022-10-30T20:31:21.928Z,32.15
2022-10-30T20:33:48.774Z,32.70
2022-10-30T20:36:15.769Z,32.63
2022-10-30T20:38:42.488Z,33.60
2022-10-30T20:41:22.318Z,33.78
2022-10-30T20:43:49.367Z,34.85
2022-10-30T20:46:16.354Z,35.58
2022-10-30T20:48:43.289Z,35.53
2022-10-30T20:51:11.236Z,36.05
2022-10-30T20:53:37.957Z,36.33
2022-10-30T20:56:05.079Z,36.72
2022-10-30T20:59:13.617Z,37.08
2022-10-30T21:01:40.579Z,36.80
2022-10-30T21:04:07.385Z,35.58
2022-10-30T21:06:34.375Z,36.03
2022-10-30T21:09:01.919Z,35.97
2022-10-30T21:11:28.726Z,35.83
2022-10-30T21:13:58.649Z,35.47
2022-10-30T21:16:25.440Z,36.40
2022-10-30T21:18:55.530Z,35.92
2022-10-30T21:21:25.546Z,35.10
2022-10-30T21:23:58.923Z,34.13
2022-10-30T21:26:25.861Z,36.33
2022-10-30T21:28:52.771Z,34.60
2022-10-30T21:31:20.167Z,35.63
2022-10-30T21:33:46.882Z,33.60
2022-10-30T21:36:18.452Z,35.67
2022-10-30T21:38:45.405Z,36.53
2022-10-30T21:41:14.891Z,37.38
2022-10-30T21:43:42.273Z,37.53
2022-10-30T21:46:12.709Z,37.83
2022-10-30T21:48:39.357Z,37.85
2022-10-30T21:51:26.955Z,37.38
2022-10-30T21:53:55.336Z,36.08
2022-10-30T21:56:25.481Z,35.88
2022-10-30T21:58:52.350Z,34.92
2022-10-30T22:01:22.055Z,35.25
2022-10-30T22:03:49.416Z,36.38
2022-10-30T22:06:17.672Z,37.70
2022-10-30T22:08:48.649Z,37.78
2022-10-30T22:11:16.184Z,37.67
2022-10-30T22:13:43.234Z,36.95
2022-10-30T22:16:12.731Z,38.33
2022-10-30T22:18:55.443Z,36.50
2022-10-30T22:21:22.210Z,38.83
2022-10-30T22:23:48.892Z,39.50
2022-10-30T22:26:17.854Z,46.78
2022-10-30T22:28:44.850Z,48.08
2022-10-30T22:31:18.482Z,44.20
2022-10-30T22:33:45.550Z,36.78
2022-10-30T22:36:18.078Z,38.60
2022-10-30T22:38:45.783Z,41.30
2022-10-30T22:41:19.983Z,38.53
2022-10-30T22:43:48.487Z,39.58
2022-10-30T22:46:17.707Z,38.83
2022-10-30T22:48:46.877Z,40.63
2022-10-30T22:51:16.674Z,39.45
2022-10-30T22:53:47.593Z,38.50
2022-10-30T22:56:20.215Z,37.83
2022-10-30T22:58:48.585Z,36.33
2022-10-30T23:01:26.173Z,36.65
2022-10-30T23:03:59.524Z,37.25
2022-10-30T23:06:35.070Z,35.60
2022-10-30T23:09:08.460Z,36.42
2022-10-30T23:11:38.794Z,35.67
2022-10-30T23:14:05.543Z,35.65
2022-10-30T23:16:38.372Z,34.88
2022-10-30T23:19:05.196Z,35.70
2022-10-30T23:21:34.071Z,36.85
2022-10-30T23:24:04.983Z,36.25
2022-10-30T23:26:35.327Z,37.08
2022-10-30T23:29:05.241Z,35.70
2022-10-30T23:31:42.934Z,36.72
2022-10-30T23:34:13.133Z,37.53
2022-10-30T23:36:47.365Z,36.95
2022-10-30T23:39:16.941Z,37.05
2022-10-30T23:41:44.310Z,36.78
2022-10-30T23:44:13.556Z,38.05
2022-10-30T23:46:40.669Z,38.42
2022-10-30T23:49:07.701Z,37.63
2022-10-30T23:51:34.445Z,37.67
2022-10-30T23:54:01.078Z,39.42
2022-10-30T23:56:27.886Z,39.28
2022-10-30T23:58:54.566Z,39.63
